Time;durP1;ratioP1;P1;durP2;ratioP2;P2;SDS_P1;SDS_P2;PMS_P1;PMS_P2;Temp;Humidity;BMP_temperature;BMP_pressure;BME280_temperature;BME280_humidity;BME280_pressure;Samples;Min_cycle;Max_cycle;Signal;HPM_P1;HPM_P2
2023/05/24 00:02:14;;;;;;;20.23;14.77;;;11.20;95.50;;;;;;5072669;28;20479;-61
2023/05/24 00:04:41;;;;;;;17.60;12.77;;;11.20;95.10;;;;;;5072990;28;20559;-61
2023/05/24 00:07:09;;;;;;;21.00;12.20;;;11.20;95.40;;;;;;5072602;28;20482;-60
2023/05/24 00:09:36;;;;;;;20.83;13.77;;;11.20;95.70;;;;;;5067100;28;20489;-61
2023/05/24 00:12:03;;;;;;;23.17;15.60;;;11.30;95.50;;;;;;5084208;28;20994;-61
2023/05/24 00:14:30;;;;;;;24.00;14.50;;;11.30;95.70;;;;;;5070372;28;21219;-60
2023/05/24 00:16:57;;;;;;;20.70;14.70;;;11.40;95.20;;;;;;5072112;28;20483;-61
2023/05/24 00:19:24;;;;;;;31.00;14.50;;;11.40;95.40;;;;;;5073169;28;21066;-61
2023/05/24 00:21:51;;;;;;;16.53;12.53;;;11.30;94.80;;;;;;5071167;28;20494;-61
2023/05/24 00:24:19;;;;;;;16.43;13.23;;;11.30;95.10;;;;;;5069521;28;20475;-61
2023/05/24 00:26:47;;;;;;;19.87;14.50;;;11.10;94.80;;;;;;5073491;28;21035;-60
2023/05/24 00:29:14;;;;;;;20.80;13.93;;;11.00;95.00;;;;;;5073217;28;20509;-60
2023/05/24 00:31:41;;;;;;;24.07;13.50;;;11.00;94.80;;;;;;5073111;28;20474;-60
2023/05/24 00:34:08;;;;;;;18.40;13.80;;;11.00;95.20;;;;;;5071852;28;20852;-60
2023/05/24 00:36:37;;;;;;;17.47;13.67;;;10.90;95.30;;;;;;5073113;28;20475;-60
2023/05/24 00:39:04;;;;;;;17.63;13.00;;;10.80;95.40;;;;;;5072001;28;20490;-60
2023/05/24 00:41:32;;;;;;;18.53;14.30;;;10.80;95.70;;;;;;5072591;28;20482;-60
2023/05/24 00:43:59;;;;;;;26.60;15.20;;;10.80;95.80;;;;;;5071666;28;20493;-60
2023/05/24 00:46:28;;;;;;;17.53;13.67;;;10.90;95.70;;;;;;5070915;28;20553;-60
2023/05/24 00:48:56;;;;;;;16.43;13.13;;;11.00;95.40;;;;;;5071479;28;20528;-60
2023/05/24 00:51:25;;;;;;;17.40;12.93;;;11.00;95.50;;;;;;5072705;28;20481;-60
2023/05/24 00:53:52;;;;;;;20.43;14.33;;;11.00;95.50;;;;;;5072334;28;20491;-60
2023/05/24 00:56:19;;;;;;;19.87;13.40;;;11.00;95.30;;;;;;5071825;28;20486;-60
2023/05/24 00:58:49;;;;;;;20.07;15.00;;;11.00;94.90;;;;;;5071181;28;20475;-60
2023/05/24 01:01:16;;;;;;;18.97;12.80;;;10.90;94.70;;;;;;5060095;28;20771;-60
2023/05/24 01:03:43;;;;;;;17.90;12.67;;;10.90;95.10;;;;;;5070887;28;20527;-60
2023/05/24 01:06:09;;;;;;;20.60;12.67;;;10.90;94.80;;;;;;5070469;28;20474;-60
2023/05/24 01:08:48;;;;;;;23.90;14.30;;;10.80;95.00;;;;;;5070133;28;20479;-60
2023/05/24 01:11:26;;;;;;;21.77;13.10;;;10.80;95.10;;;;;;5069885;28;20474;-60
2023/05/24 01:14:04;;;;;;;18.40;13.47;;;10.80;95.20;;;;;;5069961;28;20497;-60
2023/05/24 01:16:36;;;;;;;17.60;13.40;;;10.80;94.80;;;;;;5071056;28;20482;-60
2023/05/24 01:19:14;;;;;;;20.30;13.67;;;10.70;95.00;;;;;;5075084;28;20486;-60
2023/05/24 01:21:55;;;;;;;22.47;14.40;;;10.70;95.00;;;;;;5073597;28;20482;-60
2023/05/24 01:24:30;;;;;;;16.80;13.03;;;10.60;94.70;;;;;;5061835;28;20473;-60
2023/05/24 01:27:17;;;;;;;21.43;11.97;;;10.60;95.00;;;;;;5073607;28;20599;-60
2023/05/24 01:29:44;;;;;;;16.83;12.13;;;10.60;95.00;;;;;;5075151;28;20481;-60
2023/05/24 01:32:12;;;;;;;24.10;14.13;;;10.60;95.20;;;;;;5075760;28;20557;-60
2023/05/24 01:34:39;;;;;;;16.80;13.10;;;10.50;95.30;;;;;;5074988;28;22559;-60
2023/05/24 01:37:06;;;;;;;19.60;14.43;;;10.60;95.40;;;;;;5075022;28;20493;-60
2023/05/24 01:39:33;;;;;;;21.30;15.10;;;10.60;95.30;;;;;;5076236;28;20488;-60
2023/05/24 01:42:18;;;;;;;18.67;14.17;;;10.60;95.40;;;;;;5074967;28;20466;-60
2023/05/24 01:44:55;;;;;;;25.20;15.33;;;10.60;95.10;;;;;;5071885;28;20471;-60
2023/05/24 01:47:34;;;;;;;24.57;14.07;;;10.60;95.30;;;;;;5069411;28;20981;-60
2023/05/24 01:50:07;;;;;;;16.00;13.13;;;10.50;95.20;;;;;;5071918;28;20837;-60
2023/05/24 01:52:35;;;;;;;19.53;11.97;;;10.50;95.30;;;;;;5073625;28;21025;-60
2023/05/24 01:55:05;;;;;;;19.30;12.43;;;10.40;95.40;;;;;;5071824;28;20481;-60
2023/05/24 01:57:34;;;;;;;16.70;13.00;;;10.30;95.30;;;;;;5073357;28;20478;-60
2023/05/24 02:00:04;;;;;;;23.40;15.37;;;10.30;95.30;;;;;;5072605;28;20486;-60
2023/05/24 02:02:31;;;;;;;18.67;14.13;;;10.30;95.60;;;;;;5071048;28;20478;-60
2023/05/24 02:04:57;;;;;;;28.17;14.47;;;10.30;95.60;;;;;;5074197;28;20979;-60
2023/05/24 02:07:25;;;;;;;14.87;12.23;;;10.30;95.50;;;;;;5075516;28;21023;-60
2023/05/24 02:09:52;;;;;;;18.73;12.67;;;10.30;95.00;;;;;;5077457;28;20483;-60
2023/05/24 02:12:19;;;;;;;16.17;12.23;;;10.20;95.10;;;;;;5057833;28;20486;-60
2023/05/24 02:14:49;;;;;;;18.37;12.57;;;10.10;95.00;;;;;;5072104;28;21122;-60
2023/05/24 02:17:17;;;;;;;17.63;11.70;;;10.10;95.00;;;;;;5068915;28;20841;-60
2023/05/24 02:19:44;;;;;;;15.40;11.40;;;10.10;94.80;;;;;;5064413;28;20491;-60
2023/05/24 02:22:12;;;;;;;15.60;12.03;;;10.10;95.20;;;;;;5084947;28;20490;-60
2023/05/24 02:24:40;;;;;;;53.20;27.20;;;10.10;95.30;;;;;;5071137;27;20487;-60
2023/05/24 02:27:06;;;;;;;47.30;23.63;;;10.10;95.20;;;;;;5070835;28;20560;-60
2023/05/24 02:29:33;;;;;;;48.00;24.83;;;10.10;95.10;;;;;;5073468;28;20489;-59
2023/05/24 02:32:00;;;;;;;37.20;22.67;;;10.10;95.50;;;;;;5070736;28;20484;-60
2023/05/24 02:34:28;;;;;;;39.03;23.77;;;10.10;95.50;;;;;;5078958;28;20592;-60
2023/05/24 02:36:55;;;;;;;27.53;17.27;;;10.10;94.90;;;;;;5073748;28;20485;-60
2023/05/24 02:39:22;;;;;;;24.90;16.23;;;10.10;95.10;;;;;;5072170;28;20994;-60
2023/05/24 02:41:49;;;;;;;20.50;14.80;;;10.10;95.10;;;;;;5062097;28;21605;-60
2023/05/24 02:44:16;;;;;;;22.73;14.33;;;10.10;95.20;;;;;;5072767;28;20981;-60
2023/05/24 02:46:43;;;;;;;18.03;13.20;;;10.10;95.00;;;;;;5074015;28;20474;-60
2023/05/24 02:49:10;;;;;;;21.00;13.90;;;10.10;95.20;;;;;;5076064;28;20870;-60
2023/05/24 02:51:40;;;;;;;18.17;13.50;;;10.00;95.00;;;;;;5074817;27;20474;-59
2023/05/24 02:54:07;;;;;;;21.17;12.30;;;9.90;95.20;;;;;;5073978;27;20471;-59
2023/05/24 02:56:34;;;;;;;17.37;13.33;;;9.90;95.50;;;;;;5075147;28;20487;-59
2023/05/24 02:59:01;;;;;;;19.60;12.90;;;9.80;95.60;;;;;;5078857;27;20506;-60
2023/05/24 03:01:28;;;;;;;14.73;11.90;;;9.70;96.00;;;;;;5078939;28;20588;-60
2023/05/24 03:03:55;;;;;;;17.70;12.47;;;9.60;95.90;;;;;;5075601;28;20482;-60
2023/05/24 03:06:22;;;;;;;19.70;12.80;;;9.60;96.20;;;;;;5075603;27;20466;-60
2023/05/24 03:08:50;;;;;;;14.50;12.20;;;9.60;96.40;;;;;;5063361;28;20910;-60
2023/05/24 03:11:20;;;;;;;15.23;12.17;;;9.70;96.50;;;;;;5085893;27;20506;-60
2023/05/24 03:13:47;;;;;;;19.17;14.27;;;9.80;96.80;;;;;;5069089;28;20474;-60
2023/05/24 03:16:15;;;;;;;20.80;15.03;;;9.80;97.30;;;;;;5073760;28;20487;-60
2023/05/24 03:18:42;;;;;;;20.27;14.30;;;9.90;97.50;;;;;;5074033;28;20478;-60
2023/05/24 03:21:09;;;;;;;25.27;15.77;;;10.10;96.80;;;;;;5074034;28;20833;-60
2023/05/24 03:23:36;;;;;;;27.90;16.33;;;10.10;97.10;;;;;;5078225;27;20512;-60
2023/05/24 03:26:04;;;;;;;25.97;15.47;;;10.20;96.70;;;;;;5086594;27;20485;-60
2023/05/24 03:28:32;;;;;;;27.03;15.33;;;10.70;97.00;;;;;;5074924;28;20585;-60
2023/05/24 03:30:59;;;;;;;29.03;17.03;;;10.30;96.50;;;;;;5075712;28;20475;-60
2023/05/24 03:33:26;;;;;;;24.43;13.43;;;10.30;96.40;;;;;;5062462;28;20458;-60
2023/05/24 03:35:53;;;;;;;22.30;14.07;;;10.30;96.70;;;;;;5073133;28;20963;-60
2023/05/24 03:38:20;;;;;;;19.43;13.50;;;10.30;96.60;;;;;;5072661;28;20475;-59
2023/05/24 03:40:46;;;;;;;21.33;12.50;;;10.30;96.30;;;;;;5073784;28;20478;-59
2023/05/24 03:43:15;;;;;;;17.07;12.00;;;10.30;96.60;;;;;;5071593;28;20492;-59
2023/05/24 03:45:42;;;;;;;22.90;12.07;;;10.40;96.70;;;;;;5073331;28;20482;-59
2023/05/24 03:48:10;;;;;;;19.70;13.70;;;10.40;96.70;;;;;;5073298;28;20478;-59
2023/05/24 03:50:36;;;;;;;22.70;12.90;;;10.40;96.60;;;;;;5070528;28;20486;-61
2023/05/24 03:53:03;;;;;;;17.53;12.90;;;10.40;96.80;;;;;;5071812;27;20847;-60
2023/05/24 03:55:30;;;;;;;19.83;14.30;;;10.40;96.60;;;;;;5097022;27;20482;-60
2023/05/24 03:57:57;;;;;;;19.07;13.40;;;10.50;96.60;;;;;;5074272;28;21038;-60
2023/05/24 04:00:25;;;;;;;21.13;13.77;;;10.50;97.00;;;;;;5075361;28;20916;-59
2023/05/24 04:02:54;;;;;;;18.60;14.30;;;10.60;96.70;;;;;;5076754;28;20892;-59
2023/05/24 04:05:25;;;;;;;25.83;14.20;;;10.70;96.80;;;;;;5076793;28;20477;-60
2023/05/24 04:07:52;;;;;;;25.70;15.97;;;10.60;97.00;;;;;;5081100;27;21091;-60
2023/05/24 04:10:19;;;;;;;22.90;15.80;;;10.70;97.10;;;;;;5084710;27;21013;-60
2023/05/24 04:12:46;;;;;;;30.33;15.80;;;10.80;97.10;;;;;;5074159;28;20475;-60
2023/05/24 04:15:14;;;;;;;24.30;15.33;;;10.80;97.00;;;;;;5068043;28;20474;-60
2023/05/24 04:17:43;;;;;;;20.63;14.90;;;10.90;97.20;;;;;;5071460;28;21185;-59
2023/05/24 04:20:11;;;;;;;29.00;14.90;;;10.90;97.00;;;;;;5070531;28;20479;-60
2023/05/24 04:22:38;;;;;;;24.93;13.23;;;10.90;97.30;;;;;;5071406;28;20471;-59
2023/05/24 04:25:06;;;;;;;25.27;12.17;;;11.00;97.30;;;;;;5071425;28;20483;-59
2023/05/24 04:27:35;;;;;;;24.23;13.40;;;11.00;97.30;;;;;;5072594;28;20470;-59
2023/05/24 04:30:02;;;;;;;28.93;14.50;;;11.10;97.10;;;;;;5062366;27;20472;-60
2023/05/24 04:32:29;;;;;;;25.30;15.97;;;11.10;97.50;;;;;;5089297;27;20546;-59
2023/05/24 04:34:57;;;;;;;34.40;14.17;;;11.20;97.30;;;;;;5071423;28;20486;-59
2023/05/24 04:37:24;;;;;;;21.47;13.13;;;11.30;97.30;;;;;;5090863;27;20464;-59
2023/05/24 04:39:51;;;;;;;24.20;13.70;;;11.30;97.20;;;;;;5074998;27;20570;-59
2023/05/24 04:42:18;;;;;;;19.60;12.83;;;11.30;97.20;;;;;;5066589;27;20539;-59
2023/05/24 04:44:45;;;;;;;24.07;13.40;;;11.30;97.20;;;;;;5100064;27;20477;-59
2023/05/24 04:47:12;;;;;;;18.80;13.20;;;11.30;97.60;;;;;;5072302;28;20863;-59
2023/05/24 04:49:39;;;;;;;25.53;12.80;;;11.20;97.40;;;;;;5074631;28;20536;-59
2023/05/24 04:52:07;;;;;;;20.00;11.67;;;11.30;97.60;;;;;;5075523;28;20474;-60
2023/05/24 04:54:35;;;;;;;24.23;12.90;;;11.30;97.60;;;;;;5074705;28;20502;-59
2023/05/24 04:57:01;;;;;;;26.97;13.90;;;11.30;97.60;;;;;;5053668;27;20485;-59
2023/05/24 04:59:28;;;;;;;22.10;13.73;;;11.30;97.90;;;;;;5101975;27;21854;-60
2023/05/24 05:01:56;;;;;;;18.87;11.23;;;11.40;98.10;;;;;;5073760;28;20506;-60
2023/05/24 05:04:23;;;;;;;16.70;11.87;;;11.40;98.00;;;;;;5071408;28;21005;-59
2023/05/24 05:06:50;;;;;;;21.40;13.00;;;11.50;98.00;;;;;;5069906;28;20483;-60
2023/05/24 05:09:18;;;;;;;18.03;11.13;;;11.60;98.10;;;;;;5070702;28;20487;-60
2023/05/24 05:11:47;;;;;;;21.30;12.43;;;11.70;97.50;;;;;;5072519;28;20554;-60
2023/05/24 05:14:14;;;;;;;19.13;12.20;;;11.70;97.60;;;;;;5067544;28;20478;-60
2023/05/24 05:16:41;;;;;;;26.13;12.20;;;11.90;97.60;;;;;;5071212;28;20988;-60
2023/05/24 05:19:08;;;;;;;22.23;12.50;;;11.90;97.90;;;;;;5058859;28;20743;-60
2023/05/24 05:21:35;;;;;;;18.57;10.57;;;12.20;98.20;;;;;;5071492;28;21013;-60
2023/05/24 05:24:03;;;;;;;18.63;11.00;;;12.40;97.80;;;;;;5068886;28;20474;-60
2023/05/24 05:26:31;;;;;;;20.43;9.27;;;12.50;97.30;;;;;;5072647;28;20880;-60
2023/05/24 05:28:58;;;;;;;19.73;9.80;;;12.60;97.00;;;;;;5082881;27;20499;-59
2023/05/24 05:31:25;;;;;;;13.33;8.23;;;12.70;97.20;;;;;;5087158;27;20482;-59
2023/05/24 05:33:52;;;;;;;16.23;8.30;;;12.80;97.00;;;;;;5071760;28;20474;-59
2023/05/24 05:36:19;;;;;;;16.80;7.50;;;12.80;96.10;;;;;;5072899;28;20984;-60
2023/05/24 05:38:46;;;;;;;11.73;9.00;;;12.90;96.00;;;;;;5072950;28;20700;-60
2023/05/24 05:41:13;;;;;;;15.80;8.33;;;12.90;96.50;;;;;;5069787;28;20482;-60
2023/05/24 05:43:41;;;;;;;13.83;8.20;;;13.00;96.70;;;;;;5082271;28;21263;-60
2023/05/24 05:46:09;;;;;;;22.77;8.83;;;13.00;96.70;;;;;;5073188;28;20553;-60
2023/05/24 05:48:36;;;;;;;18.80;8.27;;;13.00;96.00;;;;;;5070198;28;20478;-60
2023/05/24 05:51:03;;;;;;;18.63;7.43;;;13.00;96.60;;;;;;5069762;28;21316;-60
2023/05/24 05:53:30;;;;;;;16.57;7.07;;;13.00;96.30;;;;;;5089448;27;20491;-60
2023/05/24 05:55:57;;;;;;;14.13;6.47;;;13.10;96.10;;;;;;5076791;27;20564;-60
2023/05/24 05:58:24;;;;;;;12.40;6.30;;;12.90;95.00;;;;;;5075339;28;21171;-60
2023/05/24 06:00:52;;;;;;;20.40;9.20;;;12.90;95.30;;;;;;5070664;28;20470;-60
2023/05/24 06:03:19;;;;;;;13.97;6.60;;;12.90;95.80;;;;;;5069430;28;20489;-60
2023/05/24 06:05:46;;;;;;;12.30;6.67;;;12.90;95.70;;;;;;5071635;28;20497;-59
2023/05/24 06:08:13;;;;;;;12.30;7.17;;;12.90;95.40;;;;;;5068642;28;20489;-60
2023/05/24 06:10:40;;;;;;;12.77;6.00;;;12.90;95.50;;;;;;5067986;28;21124;-60
2023/05/24 06:13:07;;;;;;;11.10;5.80;;;;;;;;;;5081171;27;20468;-60
2023/05/24 06:15:33;;;;;;;15.80;5.80;;;13.00;95.40;;;;;;5080973;27;20485;-60
2023/05/24 06:18:02;;;;;;;10.70;5.60;;;13.00;95.30;;;;;;5067461;28;20848;-60
2023/05/24 06:20:28;;;;;;;11.03;6.37;;;13.00;94.70;;;;;;5074069;27;20493;-60
2023/05/24 06:22:55;;;;;;;11.80;6.23;;;13.00;94.50;;;;;;5072879;28;20859;-59
2023/05/24 06:25:23;;;;;;;21.83;6.57;;;13.00;94.70;;;;;;5067674;27;20481;-60
2023/05/24 06:27:51;;;;;;;13.87;5.40;;;13.10;94.90;;;;;;5100496;27;20481;-60
2023/05/24 06:30:18;;;;;;;13.73;4.30;;;13.30;94.40;;;;;;5080171;27;20470;-60
2023/05/24 06:32:45;;;;;;;7.53;5.03;;;13.40;93.80;;;;;;5074833;28;20818;-60
2023/05/24 06:35:13;;;;;;;14.47;5.17;;;13.60;94.20;;;;;;5073885;28;20935;-60
2023/05/24 06:37:40;;;;;;;9.60;4.97;;;13.70;93.60;;;;;;5073307;28;20486;-60
2023/05/24 06:40:08;;;;;;;22.03;4.57;;;13.80;92.90;;;;;;5075479;28;20485;-60
2023/05/24 06:42:36;;;;;;;9.77;4.83;;;13.80;92.80;;;;;;5074503;28;20591;-60
2023/05/24 06:45:03;;;;;;;11.73;5.20;;;13.90;92.80;;;;;;5080983;27;20476;-60
2023/05/24 06:47:30;;;;;;;16.57;5.47;;;14.00;92.90;;;;;;5088265;27;20462;-60
2023/05/24 06:49:57;;;;;;;9.30;5.00;;;14.20;93.80;;;;;;5075854;28;20505;-60
2023/05/24 06:52:25;;;;;;;18.70;5.80;;;14.40;92.90;;;;;;5088265;27;21040;-60
2023/05/24 06:54:52;;;;;;;16.47;5.77;;;14.50;93.30;;;;;;5081565;27;20470;-60
2023/05/24 06:57:19;;;;;;;8.90;5.13;;;14.70;93.10;;;;;;5089519;27;20893;-60
2023/05/24 06:59:46;;;;;;;13.30;6.10;;;14.90;93.00;;;;;;5078333;28;20655;-60
2023/05/24 07:02:13;;;;;;;8.00;5.10;;;15.10;92.60;;;;;;5073862;28;20624;-60
2023/05/24 07:04:41;;;;;;;19.73;5.70;;;15.20;91.40;;;;;;5074788;28;20478;-60
2023/05/24 07:07:11;;;;;;;7.10;4.30;;;15.30;92.20;;;;;;5074761;28;20867;-61
2023/05/24 07:09:40;;;;;;;13.20;5.87;;;15.30;91.50;;;;;;5075679;28;20502;-60
2023/05/24 07:12:07;;;;;;;15.20;5.10;;;15.50;91.10;;;;;;5070662;28;20974;-60
2023/05/24 07:14:33;;;;;;;10.07;5.23;;;15.60;92.40;;;;;;5073313;28;20478;-60
2023/05/24 07:17:00;;;;;;;7.67;4.30;;;15.80;91.80;;;;;;5063515;27;20482;-60
2023/05/24 07:19:28;;;;;;;12.00;4.53;;;16.00;91.20;;;;;;5101535;27;20474;-60
2023/05/24 07:21:55;;;;;;;16.83;5.13;;;16.10;91.20;;;;;;5077591;28;20474;-60
2023/05/24 07:24:22;;;;;;;14.73;5.10;;;16.20;90.20;;;;;;5072085;28;20918;-60
2023/05/24 07:26:52;;;;;;;11.50;4.87;;;16.30;90.40;;;;;;5073663;28;20474;-60
2023/05/24 07:29:20;;;;;;;14.47;4.60;;;16.30;90.10;;;;;;5076132;28;20567;-60
2023/05/24 07:31:47;;;;;;;12.53;5.20;;;16.40;90.00;;;;;;5072263;28;20458;-61
2023/05/24 07:34:13;;;;;;;10.63;4.83;;;16.40;89.20;;;;;;5072460;28;20490;-60
2023/05/24 07:36:41;;;;;;;13.43;4.63;;;16.50;88.60;;;;;;5073859;28;20498;-60
2023/05/24 07:39:08;;;;;;;12.77;5.10;;;16.50;87.60;;;;;;5071124;28;20482;-61
2023/05/24 07:41:36;;;;;;;8.93;3.97;;;16.60;87.70;;;;;;5071435;28;20470;-60
2023/05/24 07:44:04;;;;;;;10.10;4.40;;;16.50;85.80;;;;;;5068392;28;20485;-60
2023/05/24 07:46:31;;;;;;;7.03;3.60;;;16.40;84.10;;;;;;5071148;28;20733;-60
2023/05/24 07:48:58;;;;;;;13.37;4.30;;;16.40;84.70;;;;;;5073589;28;20479;-60
2023/05/24 07:51:25;;;;;;;16.03;4.17;;;16.30;85.90;;;;;;5069461;28;20814;-61
2023/05/24 07:53:52;;;;;;;6.47;3.70;;;16.30;84.00;;;;;;5072277;28;20473;-61
2023/05/24 07:56:20;;;;;;;14.30;5.10;;;16.50;86.10;;;;;;5074137;28;20762;-60
2023/05/24 07:58:48;;;;;;;11.40;3.97;;;16.60;84.40;;;;;;5074000;28;21163;-60
2023/05/24 08:01:17;;;;;;;9.27;4.60;;;16.80;87.00;;;;;;5070891;28;20565;-60
2023/05/24 08:03:45;;;;;;;8.80;3.60;;;17.00;86.10;;;;;;5071557;28;20572;-60
2023/05/24 08:06:12;;;;;;;10.67;4.20;;;17.20;85.00;;;;;;5075050;28;20481;-61
2023/05/24 08:08:40;;;;;;;11.30;4.17;;;17.40;86.40;;;;;;5062324;27;20471;-61
2023/05/24 08:11:07;;;;;;;17.30;4.73;;;17.50;84.90;;;;;;5090192;27;20485;-61
2023/05/24 08:13:34;;;;;;;16.33;4.67;;;17.60;85.60;;;;;;5079380;28;20483;-62
2023/05/24 08:16:01;;;;;;;7.60;3.70;;;17.80;85.40;;;;;;5061417;28;20645;-61
2023/05/24 08:18:29;;;;;;;8.90;3.20;;;17.80;80.50;;;;;;5072975;28;20469;-61
2023/05/24 08:20:56;;;;;;;9.10;4.10;;;18.00;81.90;;;;;;5070006;28;20483;-61
2023/05/24 08:23:23;;;;;;;10.00;4.53;;;18.00;80.70;;;;;;5087431;27;20761;-61
2023/05/24 08:25:50;;;;;;;12.80;3.67;;;18.20;79.10;;;;;;5072220;27;20482;-61
2023/05/24 08:28:17;;;;;;;6.77;3.50;;;18.20;78.30;;;;;;5067276;28;20479;-61
2023/05/24 08:30:44;;;;;;;7.20;3.53;;;18.20;81.20;;;;;;5070599;28;20485;-61
2023/05/24 08:33:11;;;;;;;10.47;3.07;;;18.30;81.50;;;;;;5068145;28;20983;-61
2023/05/24 08:35:40;;;;;;;6.43;3.50;;;18.30;78.40;;;;;;5073185;28;20684;-61
2023/05/24 08:38:07;;;;;;;11.73;3.73;;;18.40;77.60;;;;;;5071024;28;20478;-61
2023/05/24 08:40:34;;;;;;;10.60;3.27;;;18.40;78.20;;;;;;5076594;28;20839;-61
2023/05/24 08:43:02;;;;;;;9.20;3.10;;;18.40;80.90;;;;;;5069233;28;20482;-62
2023/05/24 08:45:30;;;;;;;13.53;4.40;;;18.60;78.60;;;;;;5068544;28;20487;-61
2023/05/24 08:47:58;;;;;;;10.70;4.10;;;18.60;76.00;;;;;;5068662;28;20478;-61
2023/05/24 08:50:25;;;;;;;7.93;3.47;;;18.80;77.30;;;;;;5068020;28;20475;-61
2023/05/24 08:52:54;;;;;;;4.40;3.03;;;18.80;77.70;;;;;;5072352;28;20473;-62
2023/05/24 08:55:22;;;;;;;10.40;4.00;;;18.80;76.70;;;;;;5071105;28;20479;-61
2023/05/24 08:57:50;;;;;;;13.60;3.80;;;19.10;79.70;;;;;;5066258;28;21414;-61
2023/05/24 09:00:18;;;;;;;6.20;3.37;;;19.00;75.80;;;;;;5070357;28;20482;-60
2023/05/24 09:02:46;;;;;;;7.13;2.97;;;18.90;75.90;;;;;;5069348;28;20499;-60
2023/05/24 09:05:15;;;;;;;5.27;3.00;;;19.00;76.50;;;;;;5072271;28;20470;-60
2023/05/24 09:07:44;;;;;;;13.70;4.60;;;19.10;77.90;;;;;;5071229;28;20486;-61
2023/05/24 09:10:12;;;;;;;7.63;3.17;;;19.20;78.10;;;;;;5072700;28;20476;-61
2023/05/24 09:12:44;;;;;;;14.53;3.87;;;19.30;79.50;;;;;;5080251;27;20961;-61
2023/05/24 09:15:11;;;;;;;5.80;3.20;;;19.60;78.70;;;;;;5079651;27;20482;-61
2023/05/24 09:17:39;;;;;;;6.57;2.80;;;19.70;79.20;;;;;;5068137;28;21035;-61
2023/05/24 09:20:09;;;;;;;5.30;3.20;;;19.90;77.80;;;;;;5071070;28;20479;-61
2023/05/24 09:22:37;;;;;;;6.90;3.30;;;20.10;76.80;;;;;;5067722;28;20486;-61
2023/05/24 09:25:06;;;;;;;10.00;3.40;;;20.10;74.30;;;;;;5066860;28;20927;-61
2023/05/24 09:27:36;;;;;;;4.20;2.97;;;20.10;76.00;;;;;;5077865;27;20483;-60
2023/05/24 09:30:08;;;;;;;8.27;3.33;;;20.20;76.00;;;;;;5083609;27;20493;-61
2023/05/24 09:32:34;;;;;;;4.03;2.90;;;20.10;74.60;;;;;;5070323;28;20490;-61
2023/05/24 09:35:01;;;;;;;4.87;3.63;;;20.10;74.20;;;;;;5072937;28;20468;-61
2023/05/24 09:37:28;;;;;;;4.30;2.50;;;20.10;75.90;;;;;;5071721;28;20575;-61
2023/05/24 09:39:56;;;;;;;12.23;3.30;;;20.20;72.90;;;;;;5072546;28;20920;-61
2023/05/24 09:42:27;;;;;;;7.83;3.17;;;20.00;71.30;;;;;;5074857;28;20482;-61
2023/05/24 09:45:03;;;;;;;6.27;3.20;;;20.10;73.70;;;;;;5073266;28;20520;-61
2023/05/24 09:47:31;;;;;;;10.33;3.40;;;20.30;74.50;;;;;;5073323;28;20832;-61
2023/05/24 09:49:59;;;;;;;12.83;4.33;;;20.30;71.50;;;;;;5069206;28;20486;-60
2023/05/24 09:52:26;;;;;;;8.73;3.73;;;20.20;72.00;;;;;;5071754;28;20470;-61
2023/05/24 09:54:53;;;;;;;6.53;2.80;;;20.10;72.50;;;;;;5070420;28;20745;-61
2023/05/24 09:57:22;;;;;;;8.33;3.23;;;20.00;66.80;;;;;;5070979;28;20476;-61
2023/05/24 09:59:50;;;;;;;7.80;3.07;;;20.10;66.20;;;;;;5071628;28;20484;-61
2023/05/24 10:02:22;;;;;;;9.97;3.97;;;20.00;66.70;;;;;;5071971;28;20584;-61
2023/05/24 10:04:57;;;;;;;10.97;3.47;;;20.10;71.30;;;;;;5057372;28;20470;-61
2023/05/24 10:07:25;;;;;;;5.37;3.20;;;20.10;67.10;;;;;;5070435;28;20488;-61
2023/05/24 10:09:52;;;;;;;10.57;2.53;;;20.00;67.80;;;;;;5069565;28;21006;-61
2023/05/24 10:12:21;;;;;;;9.43;3.93;;;20.00;68.30;;;;;;5072054;28;20494;-61
2023/05/24 10:14:50;;;;;;;5.87;2.27;;;19.90;67.10;;;;;;5057482;28;20468;-61
2023/05/24 10:17:19;;;;;;;6.07;2.43;;;19.90;65.40;;;;;;5070518;28;20483;-61
2023/05/24 10:19:46;;;;;;;6.80;2.70;;;19.90;67.40;;;;;;5057789;28;20562;-61
2023/05/24 10:22:15;;;;;;;5.03;2.57;;;20.00;71.30;;;;;;5069457;28;20712;-61
2023/05/24 10:24:47;;;;;;;5.63;3.07;;;20.10;67.40;;;;;;5070407;28;20480;-61
2023/05/24 10:27:19;;;;;;;5.47;3.20;;;20.10;67.70;;;;;;5069770;28;20486;-61
2023/05/24 10:29:51;;;;;;;5.03;3.07;;;;;;;;;;5069364;28;20833;-61
2023/05/24 10:32:21;;;;;;;10.20;3.00;;;20.40;70.20;;;;;;5057600;28;20483;-61
2023/05/24 10:34:50;;;;;;;17.73;3.13;;;20.60;72.40;;;;;;5057070;28;21219;-62
2023/05/24 10:37:17;;;;;;;3.67;2.57;;;20.80;69.10;;;;;;5066456;28;20949;-62
2023/05/24 10:39:44;;;;;;;7.97;3.23;;;20.80;69.10;;;;;;5067332;28;20463;-62
2023/05/24 10:42:13;;;;;;;4.43;2.00;;;20.90;69.30;;;;;;5068164;28;23247;-62
2023/05/24 10:44:39;;;;;;;4.80;2.87;;;21.00;66.80;;;;;;5067772;28;20481;-62
2023/05/24 10:47:10;;;;;;;8.83;2.70;;;20.90;66.10;;;;;;5067763;28;21012;-62
2023/05/24 10:49:47;;;;;;;8.40;2.63;;;21.00;67.10;;;;;;5064809;28;20498;-62
2023/05/24 10:52:14;;;;;;;7.27;2.73;;;21.00;66.60;;;;;;5068722;28;20475;-61
2023/05/24 10:55:00;;;;;;;7.60;4.07;;;21.00;68.00;;;;;;5075976;27;20486;-62
2023/05/24 10:57:27;;;;;;;8.40;3.00;;;20.90;67.50;;;;;;5062319;28;20479;-62
2023/05/24 10:59:57;;;;;;;4.20;2.70;;;20.90;69.10;;;;;;5069958;28;20473;-62
2023/05/24 11:02:28;;;;;;;3.33;2.20;;;20.90;66.30;;;;;;5073757;28;20540;-62
2023/05/24 11:04:59;;;;;;;14.50;2.83;;;20.70;67.90;;;;;;5069630;28;20911;-63
2023/05/24 11:07:26;;;;;;;6.67;2.70;;;20.70;67.80;;;;;;5071210;28;20485;-62
2023/05/24 11:09:58;;;;;;;8.33;2.77;;;20.70;66.50;;;;;;5073971;28;20977;-62
2023/05/24 11:12:33;;;;;;;5.53;2.70;;;20.80;66.30;;;;;;5060450;28;20501;-62
2023/05/24 11:15:02;;;;;;;7.10;2.50;;;20.80;66.00;;;;;;5078820;27;20851;-62
2023/05/24 11:17:29;;;;;;;6.70;2.63;;;20.60;62.60;;;;;;5095682;27;21340;-62
2023/05/24 11:19:59;;;;;;;5.57;2.27;;;20.60;67.60;;;;;;5073222;28;20452;-62
2023/05/24 11:22:26;;;;;;;4.97;2.37;;;20.80;68.10;;;;;;5074859;28;20475;-62
2023/05/24 11:24:53;;;;;;;7.20;2.67;;;20.80;65.70;;;;;;5072478;28;20590;-62
2023/05/24 11:27:20;;;;;;;7.53;3.10;;;20.80;64.90;;;;;;5076600;28;20458;-62
2023/05/24 11:29:48;;;;;;;5.80;2.17;;;20.70;65.20;;;;;;5075613;28;20512;-62
2023/05/24 11:32:16;;;;;;;7.97;2.47;;;20.80;66.70;;;;;;5073568;28;20970;-62
2023/05/24 11:34:44;;;;;;;5.33;2.60;;;20.90;65.40;;;;;;5068768;28;20490;-62
2023/05/24 11:37:14;;;;;;;6.47;3.50;;;21.00;69.50;;;;;;5071564;28;20947;-63
2023/05/24 11:39:41;;;;;;;5.47;2.93;;;21.20;68.70;;;;;;5071790;28;20550;-62
2023/05/24 11:42:09;;;;;;;6.73;3.00;;;21.40;67.40;;;;;;5069524;28;20479;-62
2023/05/24 11:44:37;;;;;;;4.57;2.70;;;21.50;69.70;;;;;;5072756;28;20474;-63
2023/05/24 11:47:06;;;;;;;5.77;2.93;;;21.60;67.80;;;;;;5071729;28;20621;-62
2023/05/24 11:49:33;;;;;;;6.77;3.00;;;21.60;71.20;;;;;;5075085;28;20468;-63
2023/05/24 11:52:01;;;;;;;4.00;2.50;;;21.70;68.40;;;;;;5072514;28;20476;-62
2023/05/24 11:54:31;;;;;;;9.33;3.40;;;21.80;69.00;;;;;;5072514;28;20876;-63
2023/05/24 11:56:58;;;;;;;5.80;3.23;;;21.80;67.70;;;;;;5073254;28;20478;-62
2023/05/24 11:59:26;;;;;;;9.23;3.00;;;21.80;67.20;;;;;;5074364;28;20936;-63
2023/05/24 12:02:04;;;;;;;8.57;3.20;;;21.70;66.70;;;;;;5074423;28;20478;-62
2023/05/24 12:04:32;;;;;;;5.03;2.40;;;21.70;66.80;;;;;;5072159;28;20477;-62
2023/05/24 12:06:59;;;;;;;10.60;2.87;;;21.60;66.40;;;;;;5086822;27;20732;-62
2023/05/24 12:09:26;;;;;;;9.00;3.50;;;21.60;66.70;;;;;;5081336;27;20474;-62
2023/05/24 12:11:56;;;;;;;4.67;2.40;;;21.70;69.00;;;;;;5062353;28;20832;-62
2023/05/24 12:14:27;;;;;;;7.07;2.90;;;21.70;68.90;;;;;;5069801;28;20702;-62
2023/05/24 12:16:56;;;;;;;5.63;2.87;;;21.80;68.80;;;;;;5064902;28;20853;-62
2023/05/24 12:19:24;;;;;;;11.83;3.60;;;21.70;64.20;;;;;;5071889;28;20479;-62
2023/05/24 12:21:55;;;;;;;4.80;2.40;;;21.70;65.30;;;;;;5067165;28;20478;-63
2023/05/24 12:24:23;;;;;;;8.53;2.77;;;21.70;62.40;;;;;;5069327;28;20485;-63
2023/05/24 12:26:50;;;;;;;3.77;2.20;;;21.70;64.10;;;;;;5062838;28;20481;-62
2023/05/24 12:29:19;;;;;;;5.73;2.53;;;21.70;65.60;;;;;;5065183;28;20470;-62
2023/05/24 12:31:48;;;;;;;6.10;2.90;;;21.90;65.00;;;;;;5066263;28;20488;-62
2023/05/24 12:34:19;;;;;;;6.10;3.03;;;21.90;65.40;;;;;;5064103;28;20482;-63
2023/05/24 12:36:46;;;;;;;4.47;2.63;;;21.90;64.70;;;;;;5063307;28;20440;-62
2023/05/24 12:39:20;;;;;;;5.60;3.03;;;22.10;63.10;;;;;;5092330;27;20468;-63
2023/05/24 12:41:51;;;;;;;3.90;2.47;;;22.30;66.90;;;;;;5075310;27;20659;-62